• Join FlightAware (Why Join?)
  • Login
  • US Flag 
10:22AM EDT


 

Airport Tracker/Info


-or-


 

Live Flight TrackerFlight Track Log ✈ N173DS ✈ 27-Dec-2013 ✈ KTPA - KOKC

Flight Track Log - Related Links

Times and Time Zones

All times are in EST time to prevent confusion due to time zone crossing. See the N173DS flight status page for this flight to view local times or setup timezone preferences in your user account.

Time Position Orientation Groundspeed Altitude Reporting Facility
EST Latitude Longitude Course Direction KTS MPH feet Rate Location/Type
11:56AM 27.9833 -82.5333 360° North 145 167 500  Level Tampa TRACON
11:57AM 28.0833 -82.5333 360° North 262 302 3,400 1,980 Climbing Tampa TRACON
12:01PM 28.3439 -82.6733 335° Northwest 318 366 10,800 2,100 Climbing Jacksonville Center
12:02PM 28.4294 -82.7225 333° Northwest 341 392 13,400 2,820 Climbing Jacksonville Center
12:03PM 28.5192 -82.7814 330° Northwest 353 406 16,500 2,400 Climbing Jacksonville Center
12:04PM 28.6111 -82.8381 332° Northwest 363 418 18,200 1,620 Climbing Jacksonville Center
12:05PM 28.6819 -82.8856 330° Northwest 368 423 19,800 2,340 Climbing Jacksonville Center
12:06PM 28.7844 -82.9589 328° Northwest 379 436 22,900 3,000 Climbing Jacksonville Center
12:07PM 28.8825 -83.0253 329° Northwest 398 458 25,900 2,880 Climbing Jacksonville Center
12:08PM 28.9761 -83.0894 329° Northwest 398 458 28,700 2,100 Climbing Jacksonville Center
12:09PM 29.0722 -83.1586 328° Northwest 403 464 30,200 1,500 Climbing Jacksonville Center
12:10PM 29.1742 -83.2278 329° Northwest 409 471 31,700 900 Climbing Jacksonville Center
12:11PM 29.2825 -83.3019 329° Northwest 427 491 32,000 120 Climbing Jacksonville Center
12:12PM 29.3908 -83.3811 328° Northwest 447 514 32,000  Level Jacksonville Center
12:13PM 29.4992 -83.4581 328° Northwest 452 520 32,100 600 Climbing Jacksonville Center
12:14PM 29.5736 -83.5589 310° West 433 498 33,300 1,260 Climbing Jacksonville Center
12:15PM 29.6294 -83.6739 299° West 420 483 34,700 1,560 Climbing Jacksonville Center
12:16PM 29.6850 -83.7892 299° West 415 478 36,500 1,560 Climbing Jacksonville Center
12:17PM 29.7386 -83.8972 300° West 399 459 37,900 1,200 Climbing Jacksonville Center
12:18PM 29.7919 -84.0056 300° West 394 453 38,900 960 Climbing Jacksonville Center
12:19PM 29.8453 -84.1139 300° West 394 453 39,900 540 Climbing Jacksonville Center
12:20PM 29.9025 -84.2319 299° West 394 453 40,000  Climbing Jacksonville Center
12:21PM 29.9597 -84.3453 300° West 399 459 40,000  Level Jacksonville Center
12:22PM 30.0167 -84.4614 300° West 405 466 40,000  Level Jacksonville Center
12:23PM 30.0736 -84.5822 299° West 415 478 40,000  Level Jacksonville Center
12:24PM 30.1306 -84.6961 300° West 415 478 40,000  Level Jacksonville Center
12:25PM 30.1872 -84.8125 299° West 415 478 40,000  Level Jacksonville Center
12:26PM 30.2439 -84.9292 299° West 415 478 40,000  Level Jacksonville Center
12:27PM 30.3006 -85.0458 299° West 415 478 40,000  Level Jacksonville Center
12:28PM 30.3569 -85.1675 298° West 415 478 40,000  Level Jacksonville Center
12:29PM 30.4133 -85.2794 300° West 415 478 40,000  Level Jacksonville Center
12:30PM 30.4614 -85.3819 299° West 410 472 40,000  Level Jacksonville Center
12:31PM 30.5156 -85.4942 299° West 405 466 40,000  Level Jacksonville Center
12:32PM 30.5717 -85.6069 300° West 405 466 40,000  Level Jacksonville Center
12:33PM 30.6233 -85.7217 298° West 399 459 40,000  Level Jacksonville Center
12:34PM 30.6753 -85.8344 298° West 399 459 40,000  Level Jacksonville Center
12:35PM 30.7308 -85.9522 299° West 399 459 40,000  Level Jacksonville Center
12:36PM 30.7844 -86.0675 298° West 399 459 40,000  Level Jacksonville Center
12:37PM 30.8378 -86.1806 299° West 399 459 40,000  Level Jacksonville Center
12:38PM 30.8911 -86.2986 298° West 399 459 40,000  Level Jacksonville Center
12:39PM 30.9467 -86.4094 300° West 405 466 40,000  Level Jacksonville Center
12:40PM 30.9997 -86.5256 298° West 400 460 40,000  Level Jacksonville Center
12:41PM 31.0506 -86.6461 296° West 400 460 40,000  Level Jacksonville Center
12:42PM 31.1053 -86.7647 298° West 405 466 40,000  Level Jacksonville Center
12:43PM 31.1581 -86.8836 297° West 410 472 40,000  Level Jacksonville Center
12:45PM 31.2564 -87.0822 300° West 418 481 40,000  Level Atlanta Center
12:46PM 31.3156 -87.2131 298° West 418 481 40,000  Level Atlanta Center
12:47PM 31.3689 -87.3317 298° West 418 481 40,000  Level Atlanta Center
12:48PM 31.4200 -87.4478 297° West 418 481 40,000  Level Atlanta Center
12:49PM 31.4750 -87.5669 298° West 413 475 40,000  Level Atlanta Center
12:50PM 31.5258 -87.6833 297° West 413 475 40,000  Level Atlanta Center
12:52PM 31.6406 -87.9422 298° West 410 472 40,000  Level Memphis Center
12:53PM 31.6922 -88.0589 298° West 407 468 40,000  Level Memphis Center
12:54PM 31.7442 -88.1742 298° West 405 466 40,000  Level Memphis Center
12:55PM 31.8067 -88.3167 297° West 409 471 40,000  Level Memphis Center
12:56PM 31.8592 -88.4350 298° West 410 472 40,000  Level Memphis Center
12:57PM 31.9108 -88.5536 297° West 410 472 40,000  Level Memphis Center
12:58PM 31.9644 -88.6783 297° West 411 473 40,000  Level Memphis Center
12:59PM 32.0169 -88.7978 297° West 412 474 40,000  Level Memphis Center
01:00PM 32.0797 -88.9411 297° West 413 475 40,000  Level Memphis Center
01:01PM 32.1317 -89.0628 297° West 415 478 40,000  Level Memphis Center
01:02PM 32.1833 -89.1825 297° West 413 475 40,000  Level Memphis Center
01:03PM 32.2356 -89.3039 297° West 415 478 40,000  Level Memphis Center
01:05PM 32.2869 -89.4239 297° West 412 474 40,000  Level Memphis Center
01:06PM 32.3494 -89.5686 297° West 413 475 40,000  Level Memphis Center
01:07PM 32.4006 -89.6906 296° West 414 476 40,000  Level Memphis Center
01:08PM 32.4517 -89.8128 296° West 414 476 40,000  Level Memphis Center
01:09PM 32.5033 -89.9339 297° West 413 475 40,000  Level Memphis Center
01:10PM 32.5539 -90.0553 296° West 410 472 40,000  Level Memphis Center
01:11PM 32.6050 -90.1761 297° West 410 472 40,000  Level Memphis Center
01:13PM 32.7150 -90.4417 296° West 407 468 40,000  Level Memphis Center
01:14PM 32.7658 -90.5636 296° West 410 472 40,000  Level Memphis Center
01:15PM 32.8156 -90.6839 296° West 408 470 40,000  Level Memphis Center
01:16PM 32.8650 -90.8033 296° West 406 467 40,000  Level Memphis Center
01:17PM 32.9150 -90.9247 296° West 408 470 40,000  Level Memphis Center
01:18PM 32.9742 -91.0703 296° West 409 471 40,000  Level Memphis Center
01:19PM 33.0239 -91.1925 296° West 411 473 40,000  Level Memphis Center
01:20PM 33.0731 -91.3128 296° West 408 470 40,000  Level Memphis Center
01:21PM 33.1200 -91.4311 295° West 401 461 40,000  Level Memphis Center
01:22PM 33.1692 -91.5511 296° West 401 461 40,000  Level Memphis Center
01:23PM 33.2158 -91.6703 295° West 400 460 40,000  Level Memphis Center
01:24PM 33.2739 -91.8161 295° West 406 467 40,000  Level Memphis Center
01:25PM 33.3261 -91.9428 296° West 403 464 40,000  Level Memphis Center
01:26PM 33.3719 -92.0642 294° West 402 463 40,000  Level Memphis Center
01:27PM 33.4219 -92.1844 297° West 404 465 40,000  Level Memphis Center
01:29PM 33.4978 -92.3783 295° West 405 466 40,000  Level Fort Worth Center
01:30PM 33.5458 -92.5008 295° West 406 467 40,000  Level Fort Worth Center
01:31PM 33.5842 -92.5983 295° West 405 466 40,000  Level Memphis Center
01:32PM 33.6408 -92.7453 295° West 405 466 40,000  Level Memphis Center
01:33PM 33.6886 -92.8672 295° West 407 468 40,000  Level Memphis Center
01:34PM 33.7364 -92.9911 295° West 408 470 40,000  Level Memphis Center
01:35PM 33.7839 -93.1142 295° West 408 470 40,000  Level Memphis Center
01:36PM 33.8317 -93.2381 295° West 410 472 40,000  Level Memphis Center
01:37PM 33.8881 -93.3867 295° West 410 472 40,000  Level Memphis Center
01:38PM 33.9358 -93.5119 295° West 412 474 40,000  Level Memphis Center
01:39PM 33.9828 -93.6367 294° West 413 475 40,000  Level Memphis Center
01:40PM 34.0308 -93.7628 295° West 415 478 40,000  Level Memphis Center
01:41PM 34.0778 -93.8894 294° West 416 479 40,000  Level Memphis Center
01:42PM 34.1356 -94.0433 294° West 420 483 40,000  Level Memphis Center
01:43PM 34.1831 -94.1700 294° West 418 481 40,000  Level Memphis Center
01:44PM 34.2306 -94.2975 294° West 419 482 40,000  Level Memphis Center
01:45PM 34.2775 -94.4253 294° West 418 481 40,000  Level Memphis Center
01:46PM 34.3258 -94.5544 294° West 421 484 40,000  Level Memphis Center
01:47PM 34.3817 -94.7092 294° West 421 484 40,000  Level Memphis Center
01:49PM 34.4392 -94.8639 294° West 421 484 40,000  Level Fort Worth Center
01:50PM 34.4872 -94.9897 295° West 415 478 40,000 -480 Level Fort Worth Center
01:51PM 34.5353 -95.1197 294° West 422 486 39,100 -1,020 Descending Fort Worth Center
01:52PM 34.5817 -95.2522 293° West 428 493 37,900 -1,320 Descending Fort Worth Center
01:53PM 34.6311 -95.3931 293° West 433 498 36,400 -960 Descending Fort Worth Center
01:54PM 34.6800 -95.5292 294° West 440 506 36,000 -600 Descending Fort Worth Center
01:55PM 34.7300 -95.6708 293° West 444 511 35,200 -1,500 Descending Fort Worth Center
01:56PM 34.7861 -95.8317 293° West 430 495 32,900 -2,280 Descending Fort Worth Center
01:57PM 34.8314 -95.9597 293° West 416 479 30,600 -2,340 Descending Fort Worth Center
01:58PM 34.8792 -96.0961 293° West 433 498 28,100 -2,400 Descending Fort Worth Center
01:59PM 34.9292 -96.2372 293° West 452 520 25,600 -2,400 Descending Fort Worth Center
02:00PM 34.9775 -96.3767 293° West 449 517 23,100 -2,580 Descending Fort Worth Center
02:01PM 35.0286 -96.5275 293° West 438 504 20,300 -2,940 Descending Fort Worth Center
02:01PM 35.0500 -96.5878 293° West 434 499 19,000 -2,640 Descending Fort Worth Center
02:02PM 35.0778 -96.6697 293° West 424 488 17,600 -2,280 Descending Fort Worth Center
02:02PM 35.0839 -96.6894 291° West 418 481 17,200 -2,760 Descending Fort Worth Center
02:03PM 35.1208 -96.7956 293° West 408 470 14,800 -2,700 Descending Fort Worth Center
02:03PM 35.1264 -96.8125 292° West 389 448 14,500 -2,760 Descending Fort Worth Center
02:04PM 35.1603 -96.9108 293° West 375 432 12,000 -2,820 Descending Fort Worth Center
02:04PM 35.1656 -96.9261 293° West 360 414 11,700 -2,340 Descending Fort Worth Center
02:05PM 35.2008 -97.0278 293° West 332 382 9,600 -1,980 Descending Fort Worth Center
02:06PM 35.2369 -97.1344 293° West 284 327 7,600 -1,620 Descending Fort Worth Center
02:07PM 35.2631 -97.2122 292° West 293 337 6,300 -1,500 Descending Fort Worth Center
02:07PM 35.2669 -97.2267 288° West 294 338 6,100 -300 Descending Fort Worth Center
02:08PM 35.3031 -97.3033 300° West 278 320 6,000 -120 Descending Fort Worth Center
02:08PM 35.3139 -97.3214 306° West 276 318 6,000 -420 Level Fort Worth Center
02:09PM 35.3486 -97.3744 309° West 266 306 5,600 -840 Descending Fort Worth Center
02:09PM 35.3578 -97.3908 304° West 254 292 5,200 -1,440 Descending Fort Worth Center
02:10PM 35.3956 -97.4453 310° West 253 291 4,100 -1,140 Descending Fort Worth Center
02:11PM 35.4039 -97.4600 305° West 239 275 4,000 -120 Descending Fort Worth Center
02:11PM 35.4339 -97.5089 307° West 230 265 4,000 -240 Level Fort Worth Center
02:12PM 35.4406 -97.5206 305° West 218 251 3,800 -1,020 Descending Fort Worth Center
02:12PM 35.4617 -97.5656 300° West 178 205 3,000 -1,020 Descending Fort Worth Center
02:13PM 35.4600 -97.5792 261° West 153 176 2,800 -900 Descending Fort Worth Center
02:13PM 35.4428 -97.6042 230° Southwest 140 161 2,100 -720 Descending Fort Worth Center
02:14PM 35.4111 -97.6069 184° South 126 145 1,500 -600 Descending Fort Worth Center
02:16PM 35.3931 -97.6008 180° South  Level Estimated